createdAt,value
2023-12-09T00:05:12.303Z,51.40
2023-12-09T00:11:14.694Z,41.25
2023-12-09T00:23:19.129Z,48.53
2023-12-09T00:35:23.889Z,46.25
2023-12-09T00:47:28.481Z,54.42
2023-12-09T00:59:34.100Z,49.28
2023-12-09T01:05:36.391Z,48.50
2023-12-09T01:11:38.901Z,51.88
2023-12-09T01:17:41.298Z,47.30
2023-12-09T01:23:43.716Z,50.08
2023-12-09T01:35:48.823Z,48.58
2023-12-09T01:47:53.745Z,47.07
2023-12-09T01:53:56.932Z,49.75
2023-12-09T01:59:59.285Z,56.50
2023-12-09T02:12:15.763Z,47.17
2023-12-09T02:18:18.765Z,54.03
2023-12-09T02:24:21.245Z,50.05
2023-12-09T02:30:42.267Z,55.25
2023-12-09T02:36:45.846Z,64.05
2023-12-09T02:42:53.105Z,49.97
2023-12-09T02:48:55.883Z,45.78
2023-12-09T02:54:58.334Z,48.10
2023-12-09T03:01:00.893Z,51.38
2023-12-09T03:07:03.205Z,57.17
2023-12-09T03:13:05.819Z,54.42
2023-12-09T03:19:08.378Z,58.83
2023-12-09T03:25:11.364Z,40.42
2023-12-09T03:31:15.407Z,50.67
2023-12-09T03:37:17.714Z,43.22
2023-12-09T03:49:22.762Z,45.95
2023-12-09T03:55:25.277Z,37.08
2023-12-09T04:07:29.968Z,32.95
2023-12-09T04:19:34.750Z,38.60
2023-12-09T04:25:37.364Z,37.60
2023-12-09T04:31:40.999Z,40.42
2023-12-09T04:37:43.551Z,40.40
2023-12-09T04:43:45.938Z,39.70
2023-12-09T04:49:48.491Z,38.60
2023-12-09T04:55:50.918Z,43.45
2023-12-09T05:07:55.571Z,41.00
2023-12-09T05:20:00.130Z,39.38
2023-12-09T05:32:05.104Z,19.95
2023-12-09T05:38:07.522Z,37.92
2023-12-09T05:44:10.057Z,30.85
2023-12-09T05:56:14.962Z,43.83
2023-12-09T06:02:17.417Z,38.00
2023-12-09T06:08:20.382Z,39.00
2023-12-09T06:14:22.734Z,42.70
2023-12-09T06:26:27.562Z,38.77
2023-12-09T06:32:30.314Z,40.00
2023-12-09T06:38:34.829Z,37.05
2023-12-09T06:44:37.581Z,29.45
2023-12-09T06:50:40.897Z,30.38
2023-12-09T06:56:43.628Z,47.53
2023-12-09T07:02:56.409Z,32.42
2023-12-09T07:09:05.760Z,48.30
2023-12-09T07:15:09.853Z,33.58
2023-12-09T07:21:13.038Z,47.25
2023-12-09T07:27:15.621Z,43.42
2023-12-09T07:33:18.175Z,37.05
2023-12-09T07:39:20.622Z,31.38
2023-12-09T07:45:22.962Z,39.83
2023-12-09T07:57:28.130Z,34.30
2023-12-09T08:03:32.776Z,35.47
2023-12-09T08:09:35.303Z,43.38
2023-12-09T08:15:37.776Z,46.13
2023-12-09T08:21:40.724Z,30.30
2023-12-09T08:27:44.062Z,35.30
2023-12-09T08:33:46.938Z,38.85
2023-12-09T08:39:49.380Z,34.78
2023-12-09T08:51:54.095Z,29.25
2023-12-09T09:03:58.923Z,38.97
2023-12-09T09:10:01.437Z,36.05
2023-12-09T09:16:03.989Z,35.08
2023-12-09T09:22:06.534Z,34.58
2023-12-09T09:28:09.035Z,40.97
2023-12-09T09:34:11.618Z,34.08
2023-12-09T09:40:15.608Z,34.95
2023-12-09T09:46:21.569Z,30.15
2023-12-09T09:52:24.516Z,40.03
2023-12-09T09:58:26.980Z,35.17
2023-12-09T10:04:29.370Z,32.85
2023-12-09T10:10:34.629Z,34.92
2023-12-09T10:16:37.393Z,37.20
2023-12-09T10:22:41.269Z,41.30
2023-12-09T10:28:44.039Z,44.30
2023-12-09T10:40:50.729Z,37.23
2023-12-09T10:46:53.249Z,40.72
2023-12-09T10:58:59.421Z,33.90
2023-12-09T11:05:02.248Z,45.72
2023-12-09T11:11:06.806Z,35.65
2023-12-09T11:17:36.755Z,34.08
2023-12-09T11:23:41.626Z,46.80
2023-12-09T11:29:45.605Z,39.47
2023-12-09T11:35:49.407Z,48.90
2023-12-09T11:41:52.102Z,46.85
2023-12-09T11:47:57.936Z,45.55
2023-12-09T11:54:05.507Z,44.47
2023-12-09T12:00:11.624Z,67.65
2023-12-09T12:06:16.311Z,44.17
2023-12-09T12:12:22.371Z,57.15
2023-12-09T12:18:25.000Z,59.38
2023-12-09T12:24:27.693Z,51.00
2023-12-09T12:30:32.906Z,52.50
2023-12-09T12:36:37.071Z,48.38
2023-12-09T12:42:39.931Z,46.92
2023-12-09T12:48:42.566Z,54.50
2023-12-09T12:54:45.234Z,44.65
2023-12-09T13:00:50.896Z,52.83
2023-12-09T13:06:53.619Z,48.55
2023-12-09T13:18:59.042Z,63.85
2023-12-09T13:25:03.147Z,67.63
2023-12-09T13:31:06.739Z,54.53
2023-12-09T13:43:11.624Z,94.22
2023-12-09T13:55:16.882Z,64.00
2023-12-09T14:01:19.678Z,56.88
2023-12-09T14:07:22.351Z,49.35
2023-12-09T14:13:25.200Z,62.33
2023-12-09T14:19:28.831Z,63.38
2023-12-09T14:25:31.381Z,59.08
2023-12-09T14:37:36.982Z,56.22
2023-12-09T14:49:43.308Z,65.00
2023-12-09T14:55:46.409Z,58.30
2023-12-09T15:01:48.887Z,65.78
2023-12-09T15:07:51.256Z,49.45
2023-12-09T15:19:56.757Z,55.95
2023-12-09T15:25:59.863Z,52.22
2023-12-09T15:32:02.227Z,66.32
2023-12-09T15:44:07.033Z,44.65
2023-12-09T15:50:10.585Z,67.65
2023-12-09T15:56:13.163Z,63.33
2023-12-09T16:02:15.812Z,79.22
2023-12-09T16:08:18.196Z,67.18
2023-12-09T16:20:23.746Z,70.50
2023-12-09T16:26:31.227Z,59.78
2023-12-09T16:32:35.419Z,61.42
2023-12-09T16:38:38.055Z,63.15
2023-12-09T16:44:40.625Z,61.35
2023-12-09T16:50:42.975Z,56.40
2023-12-09T17:02:48.020Z,66.40
2023-12-09T17:08:50.562Z,63.75
2023-12-09T17:14:53.061Z,75.28
2023-12-09T17:26:58.808Z,74.07
2023-12-09T17:33:01.242Z,61.45
2023-12-09T17:45:08.356Z,85.03
2023-12-09T17:51:11.177Z,75.80
2023-12-09T17:57:13.714Z,79.38
2023-12-09T18:09:18.667Z,68.20
2023-12-09T18:21:26.138Z,58.47
2023-12-09T18:27:28.685Z,67.40
2023-12-09T18:33:32.005Z,61.03
2023-12-09T18:39:35.037Z,67.30
2023-12-09T18:45:37.714Z,48.72
2023-12-09T18:51:40.302Z,59.50
2023-12-09T18:57:42.775Z,57.22
2023-12-09T19:03:45.449Z,63.95
2023-12-09T19:09:48.159Z,56.97
2023-12-09T19:15:50.847Z,63.88
2023-12-09T19:21:53.206Z,67.18
2023-12-09T19:27:56.083Z,82.15
2023-12-09T19:34:00.477Z,83.47
2023-12-09T19:40:03.952Z,64.82
2023-12-09T19:46:06.700Z,57.25
2023-12-09T19:52:10.364Z,75.68
2023-12-09T19:58:12.705Z,78.00
2023-12-09T20:04:15.457Z,80.93
2023-12-09T20:10:18.004Z,61.05
2023-12-09T20:22:23.173Z,90.78
2023-12-09T20:28:26.390Z,86.60
2023-12-09T20:34:28.939Z,74.80
2023-12-09T20:40:34.449Z,67.45
2023-12-09T20:46:36.886Z,62.05
2023-12-09T20:58:42.014Z,86.40
2023-12-09T21:10:48.328Z,65.25
2023-12-09T21:16:50.839Z,55.00
2023-12-09T21:28:55.587Z,64.55
2023-12-09T21:34:58.257Z,57.17
2023-12-09T21:41:00.757Z,70.45
2023-12-09T21:47:03.112Z,71.03
2023-12-09T21:53:05.560Z,55.58
2023-12-09T22:05:10.514Z,56.65
2023-12-09T22:11:13.669Z,60.47
2023-12-09T22:17:17.933Z,59.70
2023-12-09T22:23:20.507Z,54.22
2023-12-09T22:35:26.546Z,50.40
2023-12-09T22:41:28.975Z,46.35
2023-12-09T22:47:32.215Z,42.05
2023-12-09T22:53:35.026Z,45.30
2023-12-09T22:59:37.715Z,42.08
2023-12-09T23:05:40.164Z,40.90
2023-12-09T23:11:42.454Z,38.85
2023-12-09T23:17:45.445Z,51.00
2023-12-09T23:23:48.111Z,41.83
2023-12-09T23:29:50.658Z,39.88
2023-12-09T23:41:55.744Z,35.85
2023-12-09T23:47:58.285Z,38.72
2023-12-09T23:54:00.854Z,39.58
